createdAt,value
2018-02-21T00:02:28.440Z,14.30
2018-02-21T00:04:56.989Z,15.33
2018-02-21T00:07:26.449Z,15.40
2018-02-21T00:09:54.998Z,13.67
2018-02-21T00:12:23.553Z,15.53
2018-02-21T00:14:52.158Z,15.80
2018-02-21T00:17:21.545Z,15.40
2018-02-21T00:19:50.876Z,16.40
2018-02-21T00:22:19.472Z,16.00
2018-02-21T00:24:48.020Z,16.97
2018-02-21T00:27:17.342Z,17.77
2018-02-21T00:29:46.033Z,17.53
2018-02-21T00:32:14.580Z,17.47
2018-02-21T00:34:43.133Z,16.63
2018-02-21T00:37:11.740Z,16.60
2018-02-21T00:39:40.296Z,16.57
2018-02-21T00:42:08.857Z,15.23
2018-02-21T00:44:37.463Z,15.97
2018-02-21T00:47:06.017Z,16.57
2018-02-21T00:49:34.569Z,16.97
2018-02-21T00:52:03.933Z,16.27
2018-02-21T00:54:32.488Z,15.23
2018-02-21T00:57:01.093Z,15.27
2018-02-21T00:59:29.845Z,16.33
2018-02-21T01:01:58.396Z,15.57
2018-02-21T01:04:26.950Z,15.53
2018-02-21T01:06:55.552Z,15.77
2018-02-21T01:09:24.120Z,17.03
2018-02-21T01:11:52.673Z,14.10
2018-02-21T01:14:21.544Z,14.70
2018-02-21T01:16:50.857Z,14.87
2018-02-21T01:19:19.416Z,15.33
2018-02-21T01:21:49.184Z,15.20
2018-02-21T01:24:17.739Z,15.10
2018-02-21T01:26:46.291Z,13.90
2018-02-21T01:29:15.661Z,15.40
2018-02-21T01:31:44.209Z,13.83
2018-02-21T01:34:12.762Z,13.43
2018-02-21T01:36:42.319Z,15.17
2018-02-21T01:39:10.876Z,14.57
2018-02-21T01:41:39.428Z,13.80
2018-02-21T01:44:09.105Z,13.93
2018-02-21T01:46:37.662Z,12.77
2018-02-21T01:49:06.205Z,13.67
2018-02-21T01:51:35.676Z,12.30
2018-02-21T01:54:04.241Z,12.50
2018-02-21T01:56:32.792Z,12.83
2018-02-21T01:59:01.396Z,13.40
2018-02-21T02:01:29.952Z,13.17
2018-02-21T02:03:59.280Z,12.63
2018-02-21T02:06:27.889Z,13.07
2018-02-21T02:08:56.448Z,12.97
2018-02-21T02:11:25.011Z,13.23
2018-02-21T02:13:54.762Z,12.60
2018-02-21T02:16:23.312Z,11.30
2018-02-21T02:18:51.863Z,12.30
2018-02-21T02:21:21.341Z,12.67
2018-02-21T02:23:49.888Z,12.23
2018-02-21T02:26:18.450Z,11.07
2018-02-21T02:28:48.788Z,10.37
2018-02-21T02:31:17.345Z,10.90
2018-02-21T02:33:46.668Z,11.03
2018-02-21T02:36:15.276Z,12.13
2018-02-21T02:41:51.172Z,9.80
2018-02-21T02:44:19.730Z,10.50
2018-02-21T02:46:48.279Z,11.63
2018-02-21T02:49:16.884Z,12.20
2018-02-21T02:51:45.437Z,13.27
2018-02-21T02:54:14.757Z,13.80
2018-02-21T02:56:44.128Z,12.33
2018-02-21T02:59:12.688Z,11.23
2018-02-21T03:01:42.410Z,13.53
2018-02-21T03:04:11.169Z,13.17
2018-02-21T03:06:39.724Z,12.00
2018-02-21T03:09:08.329Z,11.73
2018-02-21T03:11:37.142Z,11.80
2018-02-21T03:14:05.696Z,12.43
2018-02-21T03:16:34.256Z,12.10
2018-02-21T03:19:03.771Z,12.10
2018-02-21T03:21:32.316Z,12.27
2018-02-21T03:24:00.876Z,12.17
2018-02-21T03:26:29.477Z,12.67
2018-02-21T03:28:58.044Z,11.57
2018-02-21T03:31:26.603Z,12.73
2018-02-21T03:33:55.224Z,10.43
2018-02-21T03:36:23.770Z,11.80
2018-02-21T03:38:52.325Z,11.80
2018-02-21T03:41:21.878Z,11.03
2018-02-21T03:43:50.428Z,11.23
2018-02-21T03:46:19.020Z,10.27
2018-02-21T03:48:47.621Z,10.07
2018-02-21T03:51:16.182Z,10.27
2018-02-21T03:53:44.736Z,10.27
2018-02-21T03:56:13.694Z,10.10
2018-02-21T03:58:42.996Z,9.73
2018-02-21T04:01:12.313Z,10.30
2018-02-21T04:03:41.958Z,9.93
2018-02-21T04:06:10.511Z,9.80
2018-02-21T04:08:39.059Z,9.80
2018-02-21T04:11:08.428Z,10.57
2018-02-21T04:13:36.976Z,10.40
2018-02-21T04:16:05.543Z,9.73
2018-02-21T04:18:35.298Z,10.70
2018-02-21T04:21:03.852Z,9.87
2018-02-21T04:23:32.398Z,9.90
2018-02-21T04:26:01.800Z,10.63
2018-02-21T04:28:31.120Z,9.90
2018-02-21T04:31:00.437Z,10.50
2018-02-21T04:33:29.049Z,10.87
2018-02-21T04:35:57.606Z,11.20
2018-02-21T04:38:26.174Z,11.70
2018-02-21T04:40:55.713Z,11.40
2018-02-21T04:43:24.271Z,10.50
2018-02-21T04:45:52.855Z,11.83
2018-02-21T04:48:21.473Z,11.23
2018-02-21T04:50:50.029Z,11.53
2018-02-21T04:53:18.613Z,11.43
2018-02-21T04:55:48.148Z,11.33
2018-02-21T05:01:17.516Z,11.53
2018-02-21T05:03:46.830Z,11.90
2018-02-21T05:06:15.377Z,9.83
2018-02-21T05:08:43.981Z,12.20
2018-02-21T05:11:13.305Z,11.97
2018-02-21T05:13:41.861Z,11.93
2018-02-21T05:16:11.632Z,12.33
2018-02-21T05:18:40.188Z,12.77
2018-02-21T05:21:08.745Z,11.43
2018-02-21T05:23:38.110Z,13.00
2018-02-21T05:26:06.680Z,12.67
2018-02-21T05:28:35.235Z,9.90
2018-02-21T05:31:03.846Z,11.20
2018-02-21T05:33:32.400Z,10.77
2018-02-21T05:36:01.025Z,11.40
2018-02-21T05:38:29.707Z,11.57
2018-02-21T05:40:58.271Z,11.50
2018-02-21T05:43:26.824Z,12.13
2018-02-21T05:45:55.699Z,11.73
2018-02-21T05:48:25.020Z,11.63
2018-02-21T05:50:53.576Z,14.40
2018-02-21T05:53:22.952Z,14.80
2018-02-21T05:55:51.501Z,13.70
2018-02-21T05:58:20.081Z,14.90
2018-02-21T06:00:48.903Z,15.50
2018-02-21T06:03:17.454Z,13.93
2018-02-21T06:05:46.016Z,13.23
2018-02-21T06:08:14.728Z,13.93
2018-02-21T06:10:43.288Z,14.60
2018-02-21T06:13:11.842Z,14.17
2018-02-21T06:15:40.460Z,15.27
2018-02-21T06:18:09.016Z,14.97
2018-02-21T06:20:38.348Z,14.17
2018-02-21T06:23:07.274Z,15.43
2018-02-21T06:25:35.829Z,14.43
2018-02-21T06:28:04.406Z,14.87
2018-02-21T06:30:33.221Z,15.13
2018-02-21T06:33:01.780Z,14.67
2018-02-21T06:35:31.128Z,14.70
2018-02-21T06:38:00.713Z,14.17
2018-02-21T06:40:29.266Z,15.30
2018-02-21T06:42:57.829Z,13.73
2018-02-21T06:45:27.389Z,12.70
2018-02-21T06:47:55.952Z,13.33
2018-02-21T06:50:24.516Z,13.30
2018-02-21T06:52:53.114Z,13.93
2018-02-21T06:55:21.940Z,18.33
2018-02-21T06:57:50.498Z,21.07
2018-02-21T07:00:19.206Z,31.23
2018-02-21T07:02:47.764Z,34.10
2018-02-21T07:05:16.328Z,32.93
2018-02-21T07:07:44.952Z,36.83
2018-02-21T07:10:13.534Z,26.87
2018-02-21T07:12:42.094Z,29.33
2018-02-21T07:15:10.912Z,18.70
2018-02-21T07:17:39.497Z,12.27
2018-02-21T07:20:08.077Z,13.90
2018-02-21T07:22:36.689Z,13.77
2018-02-21T07:25:06.020Z,13.57
2018-02-21T07:27:34.592Z,13.77
2018-02-21T07:30:04.288Z,12.47
2018-02-21T07:32:33.612Z,18.37
2018-02-21T07:35:02.199Z,18.80
2018-02-21T07:37:30.822Z,16.07
2018-02-21T07:39:59.404Z,13.13
2018-02-21T07:42:27.968Z,12.60
2018-02-21T07:44:56.585Z,12.03
2018-02-21T07:47:25.157Z,14.57
2018-02-21T07:49:54.386Z,13.13
2018-02-21T07:52:23.784Z,12.60
2018-02-21T07:54:53.106Z,12.60
2018-02-21T07:57:21.707Z,13.93
2018-02-21T07:59:50.329Z,11.90
2018-02-21T08:02:19.028Z,11.00
2018-02-21T08:04:47.680Z,17.70
2018-02-21T08:07:16.683Z,17.87
2018-02-21T08:09:45.249Z,14.57
2018-02-21T08:12:13.818Z,28.37
2018-02-21T08:14:42.606Z,15.60
2018-02-21T08:17:11.167Z,10.17
2018-02-21T08:19:39.774Z,9.07
2018-02-21T08:22:09.079Z,9.97
2018-02-21T08:24:37.630Z,9.77
2018-02-21T08:27:06.193Z,10.03
2018-02-21T08:29:35.559Z,9.17
2018-02-21T08:32:04.124Z,10.60
2018-02-21T08:34:32.678Z,9.93
2018-02-21T08:37:02.217Z,10.97
2018-02-21T08:39:30.795Z,10.90
2018-02-21T08:41:59.385Z,10.07
2018-02-21T08:44:28.956Z,11.00
2018-02-21T08:46:57.508Z,10.93
2018-02-21T08:49:26.064Z,12.07
2018-02-21T08:51:55.529Z,10.37
2018-02-21T08:54:24.081Z,11.17
2018-02-21T08:56:52.640Z,11.50
2018-02-21T08:59:22.005Z,12.43
2018-02-21T09:01:50.579Z,11.37
2018-02-21T09:04:19.897Z,11.83
2018-02-21T09:06:48.499Z,11.70
2018-02-21T09:09:17.056Z,11.17
2018-02-21T09:11:46.370Z,10.43
2018-02-21T09:14:15.061Z,9.73
2018-02-21T09:16:43.620Z,11.10
2018-02-21T09:19:12.204Z,11.30
2018-02-21T09:21:41.853Z,9.57
2018-02-21T09:24:10.403Z,9.43
2018-02-21T09:26:39.724Z,11.03
2018-02-21T09:29:08.355Z,10.23
2018-02-21T09:31:37.024Z,11.47
2018-02-21T09:34:05.572Z,10.37
2018-02-21T09:36:34.169Z,11.20
2018-02-21T09:39:02.716Z,8.20
2018-02-21T09:41:32.029Z,9.33
2018-02-21T09:44:00.864Z,8.90
2018-02-21T09:46:29.417Z,10.10
2018-02-21T09:48:57.961Z,9.77
2018-02-21T09:51:27.333Z,8.23
2018-02-21T09:53:55.880Z,8.60
2018-02-21T09:56:24.429Z,9.90
2018-02-21T09:58:53.254Z,7.73
2018-02-21T10:01:21.842Z,7.27
2018-02-21T10:03:50.390Z,8.67
2018-02-21T10:06:19.000Z,8.47
2018-02-21T10:08:47.569Z,8.47
2018-02-21T10:11:16.117Z,9.77
2018-02-21T10:13:45.489Z,8.33
2018-02-21T10:16:14.041Z,8.27
2018-02-21T10:18:42.591Z,7.97
2018-02-21T10:21:11.523Z,6.77
2018-02-21T10:23:40.066Z,6.23
2018-02-21T10:26:09.376Z,7.27
2018-02-21T10:28:38.116Z,8.13
2018-02-21T10:31:06.675Z,7.07
2018-02-21T10:33:35.268Z,6.23
2018-02-21T10:36:03.893Z,6.97
2018-02-21T10:38:33.214Z,6.03
2018-02-21T10:41:01.761Z,6.27
2018-02-21T10:43:30.356Z,6.30
2018-02-21T10:45:59.664Z,5.87
2018-02-21T10:48:28.979Z,7.17
2018-02-21T10:50:57.586Z,7.70
2018-02-21T10:53:26.133Z,7.97
2018-02-21T10:55:55.448Z,6.17
2018-02-21T10:58:24.041Z,11.40
2018-02-21T11:00:58.028Z,16.63
2018-02-21T11:03:27.396Z,7.90
2018-02-21T11:05:55.945Z,7.00
2018-02-21T11:08:24.494Z,8.43
2018-02-21T11:10:53.864Z,7.97
2018-02-21T11:13:22.432Z,8.27
2018-02-21T11:15:50.981Z,8.30
2018-02-21T11:18:19.670Z,8.20
2018-02-21T11:20:48.218Z,7.70
2018-02-21T11:23:17.536Z,8.43
2018-02-21T11:25:47.084Z,9.00
2018-02-21T11:28:15.633Z,10.07
2018-02-21T11:30:44.176Z,9.50
2018-02-21T11:33:12.769Z,9.83
2018-02-21T11:35:41.324Z,9.73
2018-02-21T11:38:09.877Z,10.90
2018-02-21T11:40:38.749Z,9.87
2018-02-21T11:43:07.296Z,9.77
2018-02-21T11:45:35.849Z,10.57
2018-02-21T11:48:05.317Z,9.20
2018-02-21T11:50:33.894Z,9.90
2018-02-21T11:53:02.455Z,11.03
2018-02-21T11:55:31.058Z,11.90
2018-02-21T11:57:59.605Z,11.67
2018-02-21T12:00:28.920Z,11.50
2018-02-21T12:02:57.665Z,12.40
2018-02-21T12:05:26.223Z,12.17
2018-02-21T12:07:54.773Z,11.97
2018-02-21T12:10:23.394Z,13.63
2018-02-21T12:12:52.749Z,13.63
2018-02-21T12:15:21.284Z,13.10
2018-02-21T12:17:49.880Z,13.47
2018-02-21T12:20:18.437Z,13.83
2018-02-21T12:22:46.997Z,13.23
2018-02-21T12:25:15.981Z,14.20
2018-02-21T12:27:44.522Z,13.80
2018-02-21T12:30:13.880Z,13.00
2018-02-21T12:32:42.513Z,13.03
2018-02-21T12:35:11.836Z,13.20
2018-02-21T12:37:41.148Z,13.20
2018-02-21T12:43:10.334Z,10.93
2018-02-21T12:45:38.952Z,11.47
2018-02-21T12:48:07.500Z,11.63
2018-02-21T12:50:36.052Z,11.50
2018-02-21T12:53:04.753Z,10.77
2018-02-21T12:55:34.072Z,10.70
2018-02-21T12:58:02.623Z,12.00
2018-02-21T13:00:31.989Z,11.23
2018-02-21T13:03:00.551Z,11.67
2018-02-21T13:05:29.104Z,10.47
2018-02-21T13:07:58.661Z,11.27
2018-02-21T13:10:27.214Z,10.73
2018-02-21T13:12:55.776Z,10.50
2018-02-21T13:15:25.238Z,14.80
2018-02-21T13:17:53.826Z,15.73
2018-02-21T13:20:22.376Z,16.73
2018-02-21T13:22:51.184Z,21.23
2018-02-21T13:25:19.732Z,19.20
2018-02-21T13:27:48.285Z,21.30
2018-02-21T13:30:16.888Z,12.63
2018-02-21T13:32:46.210Z,11.33
2018-02-21T13:35:14.760Z,12.47
2018-02-21T13:37:44.141Z,12.07
2018-02-21T13:40:12.702Z,11.27
2018-02-21T13:42:41.253Z,11.57
2018-02-21T13:45:09.881Z,10.47
2018-02-21T13:47:38.474Z,12.00
2018-02-21T13:50:07.024Z,11.10
2018-02-21T13:52:35.633Z,10.97
2018-02-21T13:55:04.208Z,10.60
2018-02-21T13:57:32.785Z,11.17
2018-02-21T14:00:01.393Z,10.53
2018-02-21T14:02:30.712Z,10.87
2018-02-21T14:04:59.269Z,11.00
2018-02-21T14:07:28.964Z,11.13
2018-02-21T14:09:57.514Z,13.77
2018-02-21T14:12:26.076Z,16.53
2018-02-21T14:14:54.689Z,18.70
2018-02-21T14:17:23.245Z,22.47
2018-02-21T14:19:51.800Z,15.53
2018-02-21T14:22:21.356Z,17.03
2018-02-21T14:24:49.944Z,18.17
2018-02-21T14:27:18.492Z,13.30
2018-02-21T14:29:47.414Z,15.63
2018-02-21T14:32:15.964Z,14.67
2018-02-21T14:34:44.518Z,16.47
2018-02-21T14:37:13.901Z,18.87
2018-02-21T14:39:42.465Z,14.40
2018-02-21T14:42:11.025Z,25.77
2018-02-21T14:44:39.628Z,25.40
2018-02-21T14:47:08.184Z,13.03
2018-02-21T14:49:36.744Z,13.40
2018-02-21T14:52:06.105Z,18.23
2018-02-21T14:54:34.656Z,22.53
2018-02-21T14:57:04.089Z,17.83
2018-02-21T14:59:32.688Z,19.00
2018-02-21T15:02:01.253Z,17.30
2018-02-21T15:04:29.810Z,14.17
2018-02-21T15:06:58.405Z,12.87
2018-02-21T15:09:26.973Z,21.67
2018-02-21T15:11:55.528Z,20.07
2018-02-21T15:14:25.089Z,13.80
2018-02-21T15:16:53.640Z,33.43
2018-02-21T15:19:22.216Z,40.70
2018-02-21T15:21:50.843Z,135.73
2018-02-21T15:24:20.216Z,232.03
2018-02-21T15:26:48.778Z,213.80
2018-02-21T15:29:18.332Z,173.00
2018-02-21T15:31:46.885Z,169.53
2018-02-21T15:34:15.448Z,331.30
2018-02-21T15:36:45.206Z,445.67
2018-02-21T15:39:13.760Z,408.20
2018-02-21T15:41:42.320Z,159.20
2018-02-21T15:44:11.852Z,148.57
2018-02-21T15:46:40.445Z,113.63
2018-02-21T15:49:09.033Z,232.60
2018-02-21T15:51:37.640Z,219.47
2018-02-21T15:54:06.201Z,174.67
2018-02-21T15:56:34.778Z,103.73
2018-02-21T15:59:03.385Z,133.17
2018-02-21T16:01:31.949Z,142.57
2018-02-21T16:04:01.272Z,225.77
2018-02-21T16:06:29.896Z,283.07
2018-02-21T16:08:59.429Z,113.17
2018-02-21T16:11:27.990Z,179.47
2018-02-21T16:13:56.932Z,206.00
2018-02-21T16:16:25.526Z,80.77
2018-02-21T16:18:54.089Z,244.23
2018-02-21T16:21:22.799Z,99.87
2018-02-21T16:23:51.360Z,116.13
2018-02-21T16:26:19.912Z,89.00
2018-02-21T16:28:48.522Z,56.80
2018-02-21T16:31:17.844Z,58.57
2018-02-21T16:33:46.400Z,54.33
2018-02-21T16:36:15.937Z,34.97
2018-02-21T16:38:44.544Z,28.27
2018-02-21T16:41:13.113Z,91.90
2018-02-21T16:43:41.870Z,42.60
2018-02-21T16:46:10.460Z,21.57
2018-02-21T16:48:39.141Z,94.47
2018-02-21T16:51:07.996Z,54.47
2018-02-21T16:53:36.973Z,123.20
2018-02-21T16:56:05.936Z,89.73
2018-02-21T16:58:35.021Z,89.73
2018-02-21T17:01:03.713Z,81.50
2018-02-21T17:03:32.281Z,97.80
2018-02-21T17:06:01.017Z,110.80
2018-02-21T17:08:29.607Z,105.03
2018-02-21T17:10:58.940Z,94.70
2018-02-21T17:13:27.569Z,116.33
2018-02-21T17:15:56.137Z,305.10
2018-02-21T17:18:25.661Z,40.67
2018-02-21T17:20:54.368Z,30.70
2018-02-21T17:23:23.688Z,38.27
2018-02-21T17:25:53.008Z,19.27
2018-02-21T17:28:21.885Z,16.47
2018-02-21T17:30:50.436Z,26.83
2018-02-21T17:33:19.026Z,22.57
2018-02-21T17:35:47.637Z,24.00
2018-02-21T17:38:16.242Z,37.60
2018-02-21T17:40:50.396Z,56.97
2018-02-21T17:43:18.980Z,82.57
2018-02-21T17:45:47.532Z,80.53
2018-02-21T17:48:16.145Z,89.20
2018-02-21T17:50:44.701Z,71.80
2018-02-21T17:53:13.262Z,75.87
2018-02-21T17:55:41.857Z,40.33
2018-02-21T17:58:10.420Z,44.57
2018-02-21T18:00:38.989Z,22.43
2018-02-21T18:03:07.732Z,23.73
2018-02-21T18:05:36.289Z,13.70
2018-02-21T18:08:05.612Z,21.63
2018-02-21T18:10:34.312Z,14.27
2018-02-21T18:13:02.872Z,16.73
2018-02-21T18:15:31.425Z,14.10
2018-02-21T18:18:00.173Z,20.10
2018-02-21T18:20:28.737Z,20.77
2018-02-21T18:22:57.288Z,14.43
2018-02-21T18:25:26.957Z,14.40
2018-02-21T18:27:55.521Z,13.73
2018-02-21T18:30:24.078Z,12.93
2018-02-21T18:32:52.680Z,19.27
2018-02-21T18:35:21.232Z,18.83
2018-02-21T18:37:50.553Z,19.07
2018-02-21T18:40:19.156Z,16.13
2018-02-21T18:42:47.722Z,13.07
2018-02-21T18:45:16.281Z,11.13
2018-02-21T18:47:45.654Z,11.00
2018-02-21T18:50:14.211Z,10.70
2018-02-21T18:52:42.776Z,10.40
2018-02-21T18:55:11.521Z,9.40
2018-02-21T18:57:40.084Z,10.70
2018-02-21T19:00:08.640Z,10.13
2018-02-21T19:02:37.344Z,11.00
2018-02-21T19:05:05.888Z,9.77
2018-02-21T19:07:35.208Z,23.60
2018-02-21T19:10:04.022Z,21.73
2018-02-21T19:12:32.573Z,23.63
2018-02-21T19:15:01.128Z,21.33
2018-02-21T19:17:30.601Z,24.80
2018-02-21T19:19:59.164Z,15.40
2018-02-21T19:22:27.721Z,16.43
2018-02-21T19:24:56.421Z,19.03
2018-02-21T19:27:24.973Z,13.57
2018-02-21T19:29:54.296Z,14.07
2018-02-21T19:32:22.921Z,16.63
2018-02-21T19:34:51.477Z,16.47
2018-02-21T19:37:20.093Z,18.90
2018-02-21T19:39:48.684Z,21.40
2018-02-21T19:42:17.249Z,22.70
2018-02-21T19:44:45.810Z,21.90
2018-02-21T19:47:14.617Z,20.07
2018-02-21T19:49:43.164Z,21.37
2018-02-21T19:52:11.720Z,26.30
2018-02-21T19:54:40.329Z,29.97
2018-02-21T19:57:08.886Z,25.57
2018-02-21T19:59:38.223Z,29.77
2018-02-21T20:02:06.970Z,27.00
2018-02-21T20:04:36.296Z,26.10
2018-02-21T20:07:04.869Z,16.90
2018-02-21T20:09:34.398Z,15.90
2018-02-21T20:12:02.954Z,19.33
2018-02-21T20:14:32.283Z,13.10
2018-02-21T20:17:00.920Z,14.10
2018-02-21T20:19:29.488Z,10.00
2018-02-21T20:21:58.088Z,10.50
2018-02-21T20:24:26.853Z,11.37
2018-02-21T20:26:55.400Z,7.37
2018-02-21T20:29:23.949Z,8.30
2018-02-21T20:31:53.322Z,8.00
2018-02-21T20:34:21.881Z,8.23
2018-02-21T20:36:50.441Z,7.53
2018-02-21T20:39:19.081Z,7.60
2018-02-21T20:41:47.629Z,7.57
2018-02-21T20:44:16.173Z,7.50
2018-02-21T20:46:45.843Z,7.47
2018-02-21T20:49:14.388Z,7.47
2018-02-21T20:51:42.953Z,11.30
2018-02-21T20:54:12.330Z,7.73
2018-02-21T20:56:40.884Z,7.20
2018-02-21T20:59:09.432Z,7.77
2018-02-21T21:01:38.029Z,7.23
2018-02-21T21:04:06.593Z,16.17
2018-02-21T21:06:35.916Z,18.77
2018-02-21T21:09:04.660Z,38.90
2018-02-21T21:11:33.227Z,35.83
2018-02-21T21:14:01.789Z,54.60
2018-02-21T21:16:30.580Z,14.80
2018-02-21T21:18:59.132Z,24.73
2018-02-21T21:21:27.689Z,49.33
2018-02-21T21:23:57.054Z,86.17
2018-02-21T21:26:25.613Z,61.57
2018-02-21T21:28:54.176Z,51.70
2018-02-21T21:31:23.726Z,46.03
2018-02-21T21:33:52.299Z,41.83
2018-02-21T21:36:20.893Z,37.93
2018-02-21T21:38:50.704Z,34.00
2018-02-21T21:41:19.257Z,30.30
2018-02-21T21:43:47.822Z,24.60
2018-02-21T21:46:17.204Z,19.37
2018-02-21T21:48:46.532Z,15.10
2018-02-21T21:51:15.088Z,12.87
2018-02-21T21:53:50.097Z,11.37
2018-02-21T21:56:18.652Z,11.00
2018-02-21T21:58:47.205Z,9.30
2018-02-21T22:01:16.574Z,10.60
2018-02-21T22:03:45.138Z,10.20
2018-02-21T22:06:13.697Z,10.77
2018-02-21T22:08:42.411Z,11.07
2018-02-21T22:11:10.974Z,9.70
2018-02-21T22:13:39.551Z,10.80
2018-02-21T22:16:08.240Z,15.57
2018-02-21T22:18:36.792Z,22.53
2018-02-21T22:21:06.113Z,41.23
2018-02-21T22:23:34.941Z,91.30
2018-02-21T22:26:03.504Z,100.23
2018-02-21T22:28:32.060Z,80.20
2018-02-21T22:31:00.890Z,49.43
2018-02-21T22:33:29.455Z,36.97
2018-02-21T22:35:58.012Z,62.33
2018-02-21T22:38:26.625Z,97.50
2018-02-21T22:40:55.173Z,77.63
2018-02-21T22:43:24.492Z,22.47
2018-02-21T22:45:53.308Z,14.83
2018-02-21T22:48:21.861Z,15.77
2018-02-21T22:50:50.408Z,11.00
2018-02-21T22:53:19.986Z,11.83
2018-02-21T22:55:48.536Z,21.57
2018-02-21T22:58:17.088Z,15.43
2018-02-21T23:00:46.473Z,10.50
2018-02-21T23:03:15.033Z,12.00
2018-02-21T23:05:43.617Z,9.43
2018-02-21T23:08:12.232Z,10.50
2018-02-21T23:10:41.556Z,9.50
2018-02-21T23:13:10.106Z,9.90
2018-02-21T23:15:38.745Z,9.67
2018-02-21T23:18:07.292Z,8.87
2018-02-21T23:20:36.615Z,8.80
2018-02-21T23:23:05.250Z,9.70
2018-02-21T23:25:33.796Z,9.20
2018-02-21T23:28:02.355Z,10.03
2018-02-21T23:30:31.815Z,9.67
2018-02-21T23:33:00.365Z,9.87
2018-02-21T23:35:29.663Z,9.13
2018-02-21T23:37:58.546Z,9.63
2018-02-21T23:40:27.100Z,9.57
2018-02-21T23:42:55.656Z,9.70
2018-02-21T23:45:24.437Z,8.87
2018-02-21T23:47:52.993Z,9.37
2018-02-21T23:50:21.544Z,9.40
2018-02-21T23:52:50.925Z,9.63
2018-02-21T23:55:19.489Z,8.57
2018-02-21T23:57:48.048Z,9.67
